Nearby METAR Reports

 

KBFI - Seattle/Boeing, Washington, USA
Distance from station: S 10mi, 16km
Updated: Sat, 20-Apr-2019 8:53am PDT
Mostly cloudy
Mostly cloudy
 Wind from NE
Wind: NE 5 mph , 7 km/h
Temperature: 52°F , 11°C
Dew Point: 43°F , 6°C
Humidity: 72%
Barometer: 30.04 inHg , 1017.3 hPa
Clouds: Mostly cloudy
Visibility: 10 miles , 16 km
Cloud details: Mostly cloudy 2200 ft
2019/04/20 15:53 KBFI 201553Z 05004KT 10SM BKN022 11/06 A3004 RMK AO2 SLP171 T01060056
KRNT - Renton, Washington, USA
Distance from station: SSE 14mi, 23km
Updated: Sat, 20-Apr-2019 8:53am PDT
Partly cloudy
Partly cloudy
 Wind from NNW
Wind: NNW 6 mph , 9 km/h
Temperature: 50°F , 10°C
Wind Chill: 48°F , 9°C
Dew Point: 45°F , 7°C
Humidity: 82%
Barometer: 30.03 inHg , 1016.9 hPa
Clouds: Partly cloudy
Visibility: 10 miles , 16 km
Cloud details: Partly cloudy 2200 ft
2019/04/20 15:53 KRNT 201553Z 33005KT 10SM SCT022 10/07 A3003 RMK AO2 SLP175 T01000072
 
KPAE - Everett, Washington, USA
Distance from station: N 15mi, 25km
Updated: Sat, 20-Apr-2019 8:53am PDT
Overcast
Overcast
 Wind from NNW
Wind: NNW 7 mph , 11 km/h
Temperature: 46°F , 8°C
Wind Chill: 42°F , 6°C
Dew Point: 43°F , 6°C
Humidity: 87%
Barometer: 30.03 inHg , 1016.9 hPa
Clouds: Overcast
Visibility: 10 miles , 16 km
Cloud details: Partly cloudy 1000 ft
Overcast 1600 ft
2019/04/20 15:53 KPAE 201553Z 34006KT 10SM SCT010 OVC016 08/06 A3003 RMK AO2 SLP172 T00780056
KSEA - Seattle/Metro, Washington, USA
Distance from station: S 17mi, 27km
Updated: Sat, 20-Apr-2019 8:53am PDT
Mostly cloudy
Mostly cloudy
 Wind from N
Wind: N 10 mph , 17 km/h
Temperature: 50°F , 10°C
Wind Chill: 46°F , 8°C
Dew Point: 43°F , 6°C
Humidity: 76%
Barometer: 30.03 inHg , 1016.9 hPa
Clouds: Mostly cloudy
Visibility: 10 miles , 16 km
Cloud details: Partly cloudy 1400 ft
Mostly cloudy 6000 ft
2019/04/20 15:53 KSEA 201553Z 01009KT 10SM SCT014 BKN060 10/06 A3003 RMK AO2 SLP174 T01000056
 
KPWT - Bremerton Ntnl, Washington, USA
Distance from station: SW 24mi, 39km
Updated: Sat, 20-Apr-2019 8:56am PDT
Clear
Clear
 Wind from NNE
Wind: NNE 9 mph , 15 km/h
Temperature: 50°F , 10°C
Wind Chill: 46°F , 8°C
Dew Point: 43°F , 6°C
Humidity: 76%
Barometer: 30.03 inHg , 1016.9 hPa
Clouds: Clear
Visibility: 10 miles , 16 km
2019/04/20 15:56 KPWT 201556Z AUTO 03008KT 10SM CLR 10/06 A3003 RMK AO2 SLP189 T01000061
KTIW - Tacoma, Washington, USA
Distance from station: SSW 32mi, 52km
Updated: Sat, 20-Apr-2019 8:53am PDT
Mostly cloudy
Mostly cloudy
 Wind from N
Wind: N 10 mph , 17 km/h
Temperature: 50°F , 10°C
Wind Chill: 46°F , 8°C
Dew Point: 43°F , 6°C
Humidity: 76%
Barometer: 30.03 inHg , 1016.9 hPa
Clouds: Mostly cloudy
Visibility: 10 miles , 16 km
Cloud details: Few Clouds 1800 ft
Mostly cloudy 6000 ft
2019/04/20 15:53 KTIW 201553Z 01009KT 10SM FEW018 BKN060 10/06 A3003 RMK AO2 SLP170 T01000061
 
KAWO - Arlington Muni, Washington, USA
Distance from station: N 33mi, 54km
Updated: Sat, 20-Apr-2019 8:56am PDT
Overcast
Overcast
 Wind from WNW
Wind: WNW 6 mph , 9 km/h
Temperature: 46°F , 8°C
Wind Chill: 43°F , 6°C
Dew Point: 45°F , 7°C
Humidity: 93%
Barometer: 30.04 inHg , 1017.3 hPa
Clouds: Overcast
Visibility: 10 miles , 16 km
Cloud details: Partly cloudy 1000 ft
Overcast 1800 ft
2019/04/20 15:56 KAWO 201556Z AUTO 29005KT 10SM SCT010 OVC018 08/07 A3004 RMK AO2 SLP176 T00830072 $
KTCM - Tacoma/Mc Chord, Washington, USA
Distance from station: S 41mi, 65km
Updated: Sat, 20-Apr-2019 8:58am PDT
Clear
Clear
 Wind from N
Wind: N 12 mph , 19 km/h
Temperature: 52°F , 11°C
Dew Point: 48°F , 9°C
Humidity: 88%
Barometer: 30.03 inHg , 1016.9 hPa
Clouds: Clear
Visibility: 10 miles , 16 km
2019/04/20 15:58 KTCM 201558Z AUTO 36010KT 10SM CLR 11/09 A3003 RMK AO2 SLP174 T01070093 RVRNO CHINO RWY34 $
 
KPLU - Puyallup/Thun, Washington, USA
Distance from station: S 41mi, 66km
Updated: Sat, 20-Apr-2019 8:55am PDT
Clear
Clear
 Wind from varies
Wind: varies 5 mph , 7 km/h
Temperature: 52°F , 11°C
Dew Point: 48°F , 9°C
Humidity: 88%
Barometer: 30.02 inHg , 1016.6 hPa
Clouds: Clear
Visibility: 10 miles , 16 km
2019/04/20 15:55 KPLU 201555Z AUTO VRB04KT 10SM CLR 11/09 A3002 RMK AO2
KGRF - Fort Lewis/Gray, Washington, USA
Distance from station: SSW 45mi, 72km
Updated: Sat, 20-Apr-2019 8:58am PDT
Few Clouds
Few Clouds
 Wind from NNW
Wind: NNW 12 mph , 19 km/h
Temperature: 50°F , 10°C
Wind Chill: 45°F , 7°C
Dew Point: 48°F , 9°C
Humidity: 94%
Barometer: 30.03 inHg , 1016.9 hPa
Clouds: Few Clouds
Visibility: 10 miles , 16 km
Cloud details: Few Clouds 2200 ft
2019/04/20 15:58 KGRF 201558Z AUTO 34010KT 10SM FEW022 10/09 A3003 RMK AO2 SLP174 T01040092 $
 
KNUW - Whidbey Is. Nas, Washington, USA
Distance from station: NNW 48mi, 77km
Updated: Sat, 20-Apr-2019 8:56am PDT
Mostly cloudy
Mostly cloudy
 Wind from NNW
Wind: NNW 17 mph , 28 km/h, Gust: 22 mph , 35 km/h
Temperature: 52°F , 11°C
Dew Point: 43°F , 6°C
Humidity: 72%
Barometer: 30.08 inHg , 1018.6 hPa
Clouds: Mostly cloudy
Visibility: 10 miles , 16 km
Cloud details: Partly cloudy 1900 ft
Mostly cloudy 2400 ft
Mostly cloudy 12000 ft
2019/04/20 15:56 KNUW 201556Z 33015G19KT 10SM SCT019 BKN024 BKN120 11/06 A3008 RMK AO2 SLP187 T01060061 $
KSHN - Shelton, Washington, USA
Distance from station: SW 50mi, 80km
Updated: Sat, 20-Apr-2019 8:53am PDT
Overcast
Overcast
 Wind from calm
Wind: Calm
Temperature: 50°F , 10°C
Dew Point: 45°F , 7°C
Humidity: 82%
Barometer: 30.01 inHg , 1016.3 hPa
Clouds: Overcast
Visibility: 10 miles , 16 km
Cloud details: Few Clouds 900 ft
Overcast 2300 ft
2019/04/20 15:53 KSHN 201553Z AUTO 00000KT 10SM FEW009 OVC023 10/07 A3001 RMK AO2 SLP165 T01000072